Time;durP1;ratioP1;P1;durP2;ratioP2;P2;SDS_P1;SDS_P2;PMS_P1;PMS_P2;Temp;Humidity;BMP_temperature;BMP_pressure;BME280_temperature;BME280_humidity;BME280_pressure;Samples;Min_cycle;Max_cycle;Signal;HPM_P1;HPM_P2
2023/06/03 00:01:40;;;;;;;1.40;0.47;;;;;;;8.60;38.15;102431.31;5058187;28;20522;-69
2023/06/03 00:04:06;;;;;;;0.40;0.10;;;;;;;8.63;38.08;102428.69;5057235;28;20046;-68
2023/06/03 00:06:31;;;;;;;1.10;0.20;;;;;;;8.49;38.52;102431.38;5060161;28;20028;-67
2023/06/03 00:08:57;;;;;;;0.45;0.10;;;;;;;8.52;38.71;102432.25;5086773;27;21008;-68
2023/06/03 00:11:22;;;;;;;0.57;0.10;;;;;;;8.50;38.99;102438.34;5059815;28;20783;-68
2023/06/03 00:13:48;;;;;;;0.30;0.10;;;;;;;8.45;39.02;102438.38;5058777;27;20045;-69
2023/06/03 00:16:14;;;;;;;0.35;0.03;;;;;;;8.40;39.32;102440.13;5061420;28;20189;-67
2023/06/03 00:18:39;;;;;;;0.95;0.13;;;;;;;8.26;39.42;102439.34;5058747;28;20037;-67
2023/06/03 00:21:07;;;;;;;2.58;0.17;;;;;;;8.30;39.44;102443.66;5057286;28;20029;-68
2023/06/03 00:23:33;;;;;;;1.48;0.10;;;;;;;8.19;39.57;102438.50;5057087;28;20110;-69
2023/06/03 00:25:59;;;;;;;1.38;1.23;;;;;;;8.19;39.69;102446.31;5054110;28;20028;-67
2023/06/03 00:28:24;;;;;;;0.65;0.10;;;;;;;8.11;40.34;102446.38;5042316;28;20044;-69
2023/06/03 00:30:50;;;;;;;0.93;0.13;;;;;;;8.12;40.23;102444.63;5053365;28;20781;-69
2023/06/03 00:33:15;;;;;;;0.63;0.10;;;;;;;7.94;40.82;102446.44;5082922;27;20105;-71
2023/06/03 00:35:41;;;;;;;0.95;0.20;;;;;;;7.90;41.02;102452.53;5057690;28;20027;-72
2023/06/03 00:38:06;;;;;;;1.52;0.30;;;;;;;7.93;41.14;102451.63;5053336;28;20445;-72
2023/06/03 00:40:34;;;;;;;1.30;0.30;;;;;;;7.85;41.61;102445.63;5050993;28;20032;-73
2023/06/03 00:42:59;;;;;;;0.50;0.20;;;;;;;7.69;41.75;102444.75;5057981;28;20629;-71
2023/06/03 00:45:25;;;;;;;1.05;0.10;;;;;;;7.74;41.37;102433.47;5057738;28;20035;-70
2023/06/03 00:47:51;;;;;;;0.47;0.10;;;;;;;7.70;41.79;102442.16;5064478;28;20044;-71
2023/06/03 00:50:17;;;;;;;0.55;0.10;;;;;;;7.64;41.75;102447.38;5061387;28;20036;-71
2023/06/03 00:52:44;;;;;;;0.40;0.17;;;;;;;7.66;41.76;102447.38;5057277;28;20046;-72
2023/06/03 00:55:10;;;;;;;2.08;0.52;;;;;;;7.66;41.91;102445.66;5060124;28;20235;-72
2023/06/03 00:57:35;;;;;;;0.60;0.13;;;;;;;7.58;42.11;102437.00;5059398;28;20386;-72
2023/06/03 01:00:01;;;;;;;1.30;0.10;;;;;;;7.47;42.37;102438.75;5083688;27;20567;-72
2023/06/03 01:02:27;;;;;;;0.60;0.10;;;;;;;7.42;42.50;102441.34;5050144;28;20125;-71
2023/06/03 01:04:57;;;;;;;0.40;0.10;;;;;;;7.35;42.83;102449.16;5048242;28;22003;-70
2023/06/03 01:07:31;;;;;;;0.80;0.20;;;;;;;7.40;42.75;102447.41;5058257;28;20040;-71
2023/06/03 01:10:21;;;;;;;1.38;0.22;;;;;;;7.32;42.67;102448.28;5053272;28;20076;-73
2023/06/03 01:13:07;;;;;;;0.57;0.10;;;;;;;7.22;42.85;102441.38;5051308;28;20591;-72
2023/06/03 01:15:35;;;;;;;0.77;0.10;;;;;;;7.26;42.81;102450.88;5050799;28;20492;-72
2023/06/03 01:18:05;;;;;;;0.93;0.40;;;;;;;7.19;43.20;102443.09;5054861;27;20061;-74
2023/06/03 01:20:31;;;;;;;1.55;0.13;;;;;;;7.13;43.37;102454.34;5059211;28;20025;-75
2023/06/03 01:23:12;;;;;;;1.27;0.20;;;;;;;7.08;43.79;102443.97;5051039;28;20588;-73
2023/06/03 01:25:40;;;;;;;0.75;0.20;;;;;;;7.08;43.86;102453.50;5058116;28;20074;-68
2023/06/03 01:28:06;;;;;;;0.75;0.10;;;;;;;6.97;44.28;102458.69;5063059;28;20040;-68
2023/06/03 01:30:31;;;;;;;0.73;0.20;;;;;;;6.96;44.59;102461.31;5068847;28;20554;-68
2023/06/03 01:32:57;;;;;;;1.67;0.10;;;;;;;7.02;43.95;102453.50;5066721;28;20029;-70
2023/06/03 01:35:23;;;;;;;0.95;0.20;;;;;;;7.02;43.98;102461.28;5059897;28;20032;-68
2023/06/03 01:37:49;;;;;;;0.80;0.10;;;;;;;6.96;44.12;102456.13;5059180;28;20029;-70
2023/06/03 01:40:16;;;;;;;1.00;0.10;;;;;;;6.97;44.13;102457.84;5059080;28;20059;-69
2023/06/03 01:42:42;;;;;;;0.40;0.10;;;;;;;6.81;44.59;102467.34;5063693;28;20078;-71
2023/06/03 01:45:07;;;;;;;0.47;0.15;;;;;;;6.77;44.55;102466.47;5041682;28;20028;-68
2023/06/03 01:47:34;;;;;;;3.08;0.10;;;;;;;6.81;44.58;102473.41;5054660;28;20342;-68
2023/06/03 01:49:59;;;;;;;4.53;0.73;;;;;;;6.76;44.59;102475.16;5066907;27;20046;-69
2023/06/03 01:52:27;;;;;;;2.80;0.20;;;;;;;6.77;44.60;102471.66;5061247;28;20153;-68
2023/06/03 01:54:53;;;;;;;1.75;0.25;;;;;;;6.65;45.28;102469.06;5063222;28;20044;-69
2023/06/03 01:57:18;;;;;;;0.40;0.15;;;;;;;6.65;45.24;102471.66;5062017;28;20099;-71
2023/06/03 01:59:44;;;;;;;0.85;0.10;;;;;;;6.62;45.22;102469.03;5059464;28;20504;-72
2023/06/03 02:02:09;;;;;;;1.33;0.17;;;;;;;6.61;45.41;102475.97;5084765;27;20028;-72
2023/06/03 02:04:35;;;;;;;0.73;0.30;;;;;;;6.63;45.03;102470.78;5054452;28;20194;-69
2023/06/03 02:07:01;;;;;;;0.77;0.17;;;;;;;6.65;45.23;102476.84;5074595;27;20032;-73
2023/06/03 02:09:29;;;;;;;0.68;0.10;;;;;;;6.66;45.44;102474.28;5067079;27;20048;-72
2023/06/03 02:11:56;;;;;;;0.80;0.20;;;;;;;6.62;45.51;102471.63;5073787;28;20036;-69
2023/06/03 02:14:22;;;;;;;0.77;0.10;;;;;;;6.63;45.61;102465.59;5064223;27;20161;-72
2023/06/03 02:16:50;;;;;;;0.52;0.10;;;;;;;6.45;45.73;102469.88;5057115;28;20091;-70
2023/06/03 02:19:20;;;;;;;0.40;0.10;;;;;;;6.47;45.67;102460.34;5050966;27;20044;-71
2023/06/03 02:21:47;;;;;;;0.65;0.15;;;;;;;6.43;46.07;102456.00;5058057;28;20043;-75
2023/06/03 02:24:14;;;;;;;0.95;0.20;;;;;;;6.49;45.99;102458.63;5054111;28;20060;-73
2023/06/03 02:26:50;;;;;;;1.25;0.20;;;;;;;6.46;46.01;102465.53;5070592;28;20128;-74
2023/06/03 02:29:19;;;;;;;0.70;0.20;;;;;;;6.48;45.79;102456.91;5071328;28;20136;-72
2023/06/03 02:31:48;;;;;;;3.10;0.40;;;;;;;6.34;46.02;102468.97;5077000;27;20123;-74
2023/06/03 02:34:14;;;;;;;1.67;0.50;;;;;;;6.24;46.81;102465.47;5061972;27;20055;-73
2023/06/03 02:36:46;;;;;;;2.20;0.32;;;;;;;6.26;46.64;102462.84;5055749;28;20709;-73
2023/06/03 02:39:13;;;;;;;0.47;0.20;;;;;;;6.33;46.47;102468.97;5055142;28;20040;-74
2023/06/03 02:41:42;;;;;;;0.90;0.22;;;;;;;6.27;46.96;102469.78;5094251;27;20078;-76
2023/06/03 02:44:08;;;;;;;0.70;0.40;;;;;;;6.27;46.71;102468.06;5074096;28;20259;-77
2023/06/03 02:46:34;;;;;;;3.90;0.20;;;;;;;6.29;46.86;102468.97;5113633;27;20508;-77
2023/06/03 02:49:04;;;;;;;0.88;0.30;;;;;;;6.29;46.52;102468.97;5083414;28;20348;-78
2023/06/03 02:51:32;;;;;;;1.23;0.20;;;;;;;6.24;46.78;102465.47;5068680;28;20040;-74
2023/06/03 02:53:57;;;;;;;1.05;0.20;;;;;;;6.18;46.73;102473.22;5062885;28;20421;-75
2023/06/03 02:56:23;;;;;;;1.67;0.30;;;;;;;6.11;47.04;102468.00;5057123;28;20047;-76
2023/06/03 02:58:50;;;;;;;3.20;0.82;;;;;;;6.16;47.37;102467.16;5061908;28;20046;-76
2023/06/03 03:01:18;;;;;;;1.10;0.30;;;;;;;6.22;47.28;102468.91;5060950;28;20024;-76
2023/06/03 03:03:44;;;;;;;0.93;0.32;;;;;;;6.24;47.24;102475.84;5061882;28;20525;-79
2023/06/03 03:06:15;;;;;;;1.17;0.30;;;;;;;6.21;47.30;102474.94;5065083;28;20305;-76
2023/06/03 03:08:45;;;;;;;1.33;0.30;;;;;;;6.14;47.17;102473.19;5056646;28;20528;-77
2023/06/03 03:11:14;;;;;;;;;;;;;;;6.19;47.22;102474.06;5068081;28;20032;-70
2023/06/03 03:13:41;;;;;;;0.73;0.30;;;;;;;6.16;47.10;102472.34;5083340;27;20584;-70
2023/06/03 03:16:08;;;;;;;1.50;0.40;;;;;;;6.19;47.09;102481.88;5065071;28;20032;-70
2023/06/03 03:18:38;;;;;;;1.42;0.30;;;;;;;6.19;47.07;102476.69;5037646;28;20189;-71
2023/06/03 03:21:05;;;;;;;0.70;0.20;;;;;;;6.16;47.57;102480.13;5053425;28;20032;-70
2023/06/03 03:23:31;;;;;;;0.80;0.30;;;;;;;6.23;47.40;102478.44;5051252;28;20039;-70
2023/06/03 03:26:00;;;;;;;0.90;0.40;;;;;;;6.25;47.40;102474.09;5056858;28;20036;-70
2023/06/03 03:28:28;;;;;;;0.70;0.30;;;;;;;6.26;47.23;102481.91;5065580;27;20267;-69
2023/06/03 03:30:57;;;;;;;1.33;0.43;;;;;;;6.35;47.17;102478.53;5057985;28;20033;-70
2023/06/03 03:33:23;;;;;;;2.75;0.30;;;;;;;6.32;47.36;102470.69;5053137;28;20074;-69
2023/06/03 03:35:50;;;;;;;1.77;0.60;;;;;;;6.37;47.17;102474.16;5057306;28;20032;-70
2023/06/03 03:38:16;;;;;;;2.33;0.45;;;;;;;6.36;47.31;102475.03;5056069;28;20039;-70
2023/06/03 03:40:43;;;;;;;1.17;0.40;;;;;;;6.43;47.08;102474.19;5055198;28;20036;-69
2023/06/03 03:43:15;;;;;;;2.03;1.20;;;;;;;6.54;47.20;102483.75;5057612;27;20551;-70
2023/06/03 03:45:41;;;;;;;1.40;0.38;;;;;;;6.48;47.29;102477.69;5061824;28;20722;-70
2023/06/03 03:48:14;;;;;;;2.05;0.73;;;;;;;6.59;47.45;102476.84;5065272;28;20043;-70
2023/06/03 03:50:47;;;;;;;2.53;0.30;;;;;;;6.67;47.12;102485.53;5090096;27;20032;-71
2023/06/03 03:53:30;;;;;;;1.75;0.85;;;;;;;6.66;47.42;102483.78;5060893;28;20060;-73
2023/06/03 03:55:58;;;;;;;1.13;0.43;;;;;;;6.63;47.43;102483.78;5069494;28;20821;-71
2023/06/03 03:58:42;;;;;;;4.35;0.70;;;;;;;6.75;47.12;102483.78;5058163;28;20040;-71
2023/06/03 04:01:16;;;;;;;1.05;0.40;;;;;;;6.85;46.82;102488.16;5091726;27;20474;-75
2023/06/03 04:03:47;;;;;;;2.22;0.50;;;;;;;6.89;46.96;102482.09;5040301;28;21162;-74
2023/06/03 04:06:39;;;;;;;2.03;0.40;;;;;;;7.01;46.90;102490.78;5051747;28;20040;-73
2023/06/03 04:09:08;;;;;;;3.33;0.28;;;;;;;7.07;46.79;102481.25;5036758;28;20047;-73
2023/06/03 04:11:37;;;;;;;3.97;0.30;;;;;;;7.15;46.95;102489.03;5043926;28;20101;-74
2023/06/03 04:14:10;;;;;;;0.70;0.22;;;;;;;7.16;46.76;102489.91;5057777;28;20040;-75
2023/06/03 04:16:44;;;;;;;;;;;;;;;7.25;47.13;102489.91;5045491;28;20028;-74
2023/06/03 04:19:21;;;;;;;1.25;0.40;;;;;;;7.42;46.91;102492.50;5041016;28;20567;-72
2023/06/03 04:21:47;;;;;;;0.85;0.40;;;;;;;7.63;46.75;102482.09;5082968;27;20027;-75
2023/06/03 04:24:13;;;;;;;2.08;0.40;;;;;;;7.79;46.74;102482.94;5084335;27;20075;-76
2023/06/03 04:26:41;;;;;;;2.15;0.50;;;;;;;7.98;46.58;102491.56;5038621;28;20588;-75
2023/06/03 04:29:07;;;;;;;1.70;0.70;;;;;;;8.18;46.31;102482.78;5051235;28;20147;-71
2023/06/03 04:31:33;;;;;;;3.72;0.25;;;;;;;8.36;46.10;102486.19;5064220;28;20759;-70
2023/06/03 04:33:59;;;;;;;1.65;0.43;;;;;;;8.52;45.51;102486.97;5054230;28;20047;-73
2023/06/03 04:36:25;;;;;;;1.58;0.30;;;;;;;8.69;44.88;102492.06;5054226;28;20187;-74
2023/06/03 04:38:51;;;;;;;1.38;0.40;;;;;;;8.81;44.85;102488.56;5059342;28;20136;-72
2023/06/03 04:41:17;;;;;;;2.03;1.25;;;;;;;9.02;44.91;102484.06;5041584;28;20029;-71
2023/06/03 04:43:45;;;;;;;1.88;0.22;;;;;;;9.21;43.98;102483.06;5055682;28;20513;-72
2023/06/03 04:46:14;;;;;;;0.40;0.20;;;;;;;9.26;43.76;102477.78;5049477;28;20040;-71
2023/06/03 04:48:41;;;;;;;1.20;0.35;;;;;;;9.43;43.18;102485.44;5045957;28;20087;-75
2023/06/03 04:51:07;;;;;;;1.55;0.20;;;;;;;9.61;42.86;102490.50;5034677;28;20568;-73
2023/06/03 04:53:37;;;;;;;1.33;0.57;;;;;;;9.73;42.47;102486.91;5043718;28;20318;-75
2023/06/03 04:56:05;;;;;;;1.60;0.25;;;;;;;9.94;41.67;102485.81;5055244;28;20050;-78
2023/06/03 04:58:31;;;;;;;0.98;0.30;;;;;;;10.23;41.12;102480.22;5045309;28;20127;-79
2023/06/03 05:00:57;;;;;;;1.45;0.30;;;;;;;11.16;39.50;102477.16;5046629;28;20397;-74
2023/06/03 05:03:23;;;;;;;8.32;0.22;;;;;;;13.28;34.86;102473.53;5088517;27;20440;-73
2023/06/03 05:05:48;;;;;;;1.40;0.43;;;;;;;15.26;32.33;102469.41;5070244;28;20031;-78
2023/06/03 05:08:18;;;;;;;0.63;0.10;;;;;;;16.71;30.05;102467.50;5049862;28;20866;-71
2023/06/03 05:10:45;;;;;;;1.45;0.40;;;;;;;17.85;28.02;102466.13;5067996;28;20028;-69
2023/06/03 05:13:11;;;;;;;2.08;0.28;;;;;;;18.50;26.88;102457.81;5052154;28;20040;-69
2023/06/03 05:15:37;;;;;;;4.30;0.82;;;;;;;19.20;25.54;102464.03;5048134;28;20032;-68
2023/06/03 05:18:04;;;;;;;2.42;0.30;;;;;;;19.12;25.11;102460.91;5057442;28;20040;-68
2023/06/03 05:20:31;;;;;;;1.23;0.25;;;;;;;18.68;25.81;102456.91;5057547;28;20276;-69
2023/06/03 05:22:58;;;;;;;3.60;0.30;;;;;;;19.18;24.53;102460.59;5039407;27;20032;-69
2023/06/03 05:25:24;;;;;;;0.73;0.20;;;;;;;19.05;25.00;102464.81;5055018;28;20032;-69
2023/06/03 05:27:49;;;;;;;1.35;0.20;;;;;;;19.07;25.36;102468.25;5050587;28;20862;-69
2023/06/03 05:30:15;;;;;;;2.05;0.30;;;;;;;19.25;24.26;102458.50;5069726;28;20042;-68
2023/06/03 05:32:41;;;;;;;4.72;0.40;;;;;;;19.79;24.58;102467.16;5074733;27;20035;-68
2023/06/03 05:35:09;;;;;;;2.20;0.20;;;;;;;20.33;23.41;102459.75;5038248;28;20040;-69
2023/06/03 05:37:36;;;;;;;1.33;0.28;;;;;;;20.78;23.02;102470.47;5049637;28;20028;-69
2023/06/03 05:40:02;;;;;;;0.80;0.52;;;;;;;20.34;23.07;102468.56;5050246;28;20598;-68
2023/06/03 05:42:33;;;;;;;1.58;0.30;;;;;;;20.11;23.46;102469.84;5039021;28;20032;-69
2023/06/03 05:44:58;;;;;;;0.90;0.50;;;;;;;20.09;23.37;102471.72;5050195;28;20517;-70
2023/06/03 05:47:25;;;;;;;3.35;0.28;;;;;;;20.65;23.01;102466.81;5081576;27;20037;-68
2023/06/03 05:49:50;;;;;;;1.40;0.20;;;;;;;20.72;22.43;102465.50;5048468;28;20064;-68
2023/06/03 05:52:15;;;;;;;1.02;0.25;;;;;;;21.27;21.95;102464.91;5050370;28;20560;-69
2023/06/03 05:54:43;;;;;;;0.98;0.20;;;;;;;21.41;21.74;102460.56;5059652;28;20566;-68
2023/06/03 05:57:09;;;;;;;2.25;0.20;;;;;;;21.34;21.31;102463.59;5070267;28;20097;-69
2023/06/03 05:59:35;;;;;;;2.88;0.30;;;;;;;21.74;22.04;102461.16;5049494;28;20063;-69
2023/06/03 06:02:01;;;;;;;0.85;0.20;;;;;;;22.52;21.04;102465.09;5047298;28;20035;-68
2023/06/03 06:04:30;;;;;;;0.43;0.20;;;;;;;22.54;21.02;102466.69;5047549;27;20493;-69
2023/06/03 06:06:55;;;;;;;0.40;0.20;;;;;;;22.95;19.47;102468.41;5046571;28;20039;-71
2023/06/03 06:09:21;;;;;;;1.42;0.40;;;;;;;22.71;19.86;102464.72;5075301;27;20050;-69
2023/06/03 06:11:47;;;;;;;2.92;0.63;;;;;;;22.47;20.36;102470.72;5063556;28;20035;-69
2023/06/03 06:14:12;;;;;;;2.10;0.30;;;;;;;22.78;20.19;102456.25;5073549;28;20571;-69
2023/06/03 06:16:39;;;;;;;2.55;0.30;;;;;;;23.50;19.39;102461.09;5070260;27;20615;-70
2023/06/03 06:19:05;;;;;;;1.10;0.20;;;;;;;23.54;19.24;102467.06;5063971;28;20048;-68
2023/06/03 06:21:32;;;;;;;2.00;0.28;;;;;;;24.15;18.37;102464.50;5076072;28;20050;-68
2023/06/03 06:23:57;;;;;;;1.25;0.15;;;;;;;23.89;18.97;102469.91;5069515;28;20485;-68
2023/06/03 06:26:23;;;;;;;0.75;0.20;;;;;;;24.23;17.93;102468.28;5073431;28;20031;-69
2023/06/03 06:28:52;;;;;;;1.27;0.10;;;;;;;24.09;17.38;102455.09;5053059;28;20918;-69
2023/06/03 06:31:20;;;;;;;1.15;0.30;;;;;;;24.46;17.36;102462.25;5074582;28;20471;-69
2023/06/03 06:33:50;;;;;;;1.90;0.20;;;;;;;25.19;15.76;102469.16;5073159;27;20055;-69
2023/06/03 06:36:25;;;;;;;4.25;0.52;;;;;;;24.62;16.50;102463.66;5072587;28;20067;-69
2023/06/03 06:38:52;;;;;;;2.85;0.20;;;;;;;25.38;14.84;102466.75;5077970;27;20531;-69
2023/06/03 06:41:21;;;;;;;0.80;0.20;;;;;;;25.08;16.55;102469.16;5080023;28;20409;-70
2023/06/03 06:43:47;;;;;;;0.30;0.10;;;;;;;25.43;16.00;102464.56;5060152;27;20403;-70
2023/06/03 06:46:13;;;;;;;1.67;0.15;;;;;;;24.76;15.39;102467.94;5068385;28;20048;-68
2023/06/03 06:48:39;;;;;;;1.45;0.32;;;;;;;23.39;16.29;102467.19;5045145;28;20058;-69
2023/06/03 06:51:06;;;;;;;3.92;0.47;;;;;;;22.41;17.83;102468.44;5059729;28;20028;-69
2023/06/03 06:53:34;;;;;;;1.02;0.10;;;;;;;22.81;17.98;102460.50;5055050;28;20051;-70
2023/06/03 06:56:06;;;;;;;2.85;0.30;;;;;;;22.46;18.17;102471.66;5069247;27;20027;-69
2023/06/03 06:58:38;;;;;;;0.73;0.25;;;;;;;22.32;17.79;102469.06;5058536;28;20527;-69
2023/06/03 07:01:05;;;;;;;1.13;0.10;;;;;;;24.09;16.42;102468.47;5061790;28;20114;-70
2023/06/03 07:03:36;;;;;;;3.08;0.20;;;;;;;24.57;15.18;102465.84;5059756;28;20056;-69
2023/06/03 07:06:02;;;;;;;0.82;0.40;;;;;;;23.98;16.19;102477.25;5083779;27;20501;-69
2023/06/03 07:08:30;;;;;;;3.28;0.50;;;;;;;22.27;18.23;102476.47;5060180;28;20074;-70
2023/06/03 07:11:00;;;;;;;0.40;0.10;;;;;;;23.75;16.96;102470.88;5084588;27;20033;-70
2023/06/03 07:13:28;;;;;;;4.13;1.17;;;;;;;23.52;15.88;102472.53;5056208;28;20453;-69
2023/06/03 07:15:55;;;;;;;0.60;0.10;;;;;;;23.93;16.43;102475.91;5051505;28;20031;-69
2023/06/03 07:18:21;;;;;;;1.90;0.20;;;;;;;24.73;15.32;102465.53;5082628;27;20080;-70
2023/06/03 07:20:48;;;;;;;0.82;0.20;;;;;;;25.37;14.74;102473.06;5057247;28;20114;-70
2023/06/03 07:23:25;;;;;;;0.52;0.10;;;;;;;26.08;14.54;102464.78;5051320;28;20443;-70
2023/06/03 07:25:55;;;;;;;0.17;0.05;;;;;;;27.22;13.57;102463.31;5052948;28;20040;-70
2023/06/03 07:28:31;;;;;;;1.15;0.20;;;;;;;27.28;12.55;102470.84;5051310;28;20052;-70
2023/06/03 07:31:05;;;;;;;5.60;0.40;;;;;;;27.71;12.52;102472.44;5052549;28;20028;-69
2023/06/03 07:33:37;;;;;;;1.60;0.20;;;;;;;27.46;11.60;102466.53;5050531;28;20599;-70
2023/06/03 07:36:04;;;;;;;1.08;0.20;;;;;;;27.23;12.34;102468.56;5075515;28;20036;-70
2023/06/03 07:38:38;;;;;;;1.45;0.20;;;;;;;26.88;12.61;102474.25;5055875;27;20130;-70
2023/06/03 07:41:11;;;;;;;4.53;0.17;;;;;;;28.05;12.41;102472.09;5057761;28;20116;-70
2023/06/03 07:43:43;;;;;;;0.70;0.10;;;;;;;27.38;11.85;102477.09;5081367;27;20036;-71
2023/06/03 07:46:11;;;;;;;1.58;0.10;;;;;;;27.79;12.02;102472.63;5052067;28;20185;-71
2023/06/03 07:48:37;;;;;;;0.73;0.10;;;;;;;27.94;11.71;102475.75;5050926;27;20207;-71
2023/06/03 07:51:07;;;;;;;0.80;0.10;;;;;;;27.21;11.17;102475.06;5051563;28;20241;-71
2023/06/03 07:53:36;;;;;;;1.27;0.13;;;;;;;27.26;11.10;102478.19;5051775;28;20040;-71
2023/06/03 07:56:13;;;;;;;0.60;0.10;;;;;;;28.32;11.14;102477.69;5050886;28;20089;-70
2023/06/03 07:58:41;;;;;;;1.40;0.20;;;;;;;28.52;12.20;102477.66;5051641;27;20857;-71
2023/06/03 08:01:07;;;;;;;0.73;0.20;;;;;;;27.99;12.27;102478.88;5034924;28;20116;-70
2023/06/03 08:03:33;;;;;;;1.35;0.30;;;;;;;27.47;11.67;102481.69;5040294;28;20051;-70
2023/06/03 08:05:59;;;;;;;3.47;0.10;;;;;;;28.39;11.71;102479.78;5048187;28;20036;-70
2023/06/03 08:08:30;;;;;;;0.82;0.17;;;;;;;29.67;10.86;102468.66;5048061;28;20732;-71
2023/06/03 08:10:55;;;;;;;1.65;0.10;;;;;;;30.50;9.97;102473.91;5051075;28;20028;-70
2023/06/03 08:13:21;;;;;;;0.15;0.10;;;;;;;29.31;11.47;102473.91;5045162;28;20558;-70
2023/06/03 08:15:47;;;;;;;0.70;0.20;;;;;;;28.50;11.47;102468.88;5071322;28;20088;-71
2023/06/03 08:18:36;;;;;;;2.83;0.68;;;;;;;28.47;11.34;102470.03;5070314;27;20055;-71
2023/06/03 08:21:02;;;;;;;0.95;0.20;;;;;;;28.36;12.99;102469.34;5065061;28;20031;-70
2023/06/03 08:23:28;;;;;;;1.40;0.15;;;;;;;27.96;11.62;102475.63;5068976;28;20578;-71
2023/06/03 08:25:53;;;;;;;5.00;0.30;;;;;;;28.43;11.05;102467.78;5071273;28;20121;-71
2023/06/03 08:28:18;;;;;;;0.52;0.20;;;;;;;27.82;11.49;102466.97;5061556;27;20055;-71
2023/06/03 08:30:44;;;;;;;0.57;0.13;;;;;;;27.09;11.51;102472.41;5071740;28;20036;-70
2023/06/03 08:33:10;;;;;;;0.60;0.10;;;;;;;27.27;11.79;102463.75;5077702;28;20129;-71
2023/06/03 08:35:35;;;;;;;0.65;0.20;;;;;;;27.51;11.83;102464.28;5070864;28;20427;-72
2023/06/03 08:38:03;;;;;;;0.77;0.10;;;;;;;27.87;11.66;102462.00;5070027;27;20290;-71
2023/06/03 08:40:35;;;;;;;0.35;0.17;;;;;;;27.45;11.21;102464.84;5070478;28;20040;-71
2023/06/03 08:43:04;;;;;;;0.80;0.45;;;;;;;27.31;11.65;102459.81;5069248;27;20084;-71
2023/06/03 08:46:08;;;;;;;0.82;0.20;;;;;;;27.96;11.75;102456.81;5069382;28;20504;-71
2023/06/03 08:48:45;;;;;;;4.50;0.30;;;;;;;27.61;11.87;102460.78;5063810;27;22947;-71
2023/06/03 08:51:14;;;;;;;0.40;0.10;;;;;;;26.66;12.15;102457.28;5078530;28;20040;-70
2023/06/03 08:53:49;;;;;;;1.13;0.28;;;;;;;26.02;13.87;102449.19;5071780;28;20143;-71
2023/06/03 08:56:20;;;;;;;0.38;0.20;;;;;;;26.59;13.32;102456.13;5084938;27;20133;-70
2023/06/03 08:59:10;;;;;;;0.73;0.10;;;;;;;26.88;11.99;102453.63;5059823;27;20066;-71
2023/06/03 09:01:38;;;;;;;0.85;0.10;;;;;;;27.35;12.10;102447.84;5047937;28;20028;-71
2023/06/03 09:04:04;;;;;;;4.53;0.43;;;;;;;27.43;12.39;102457.88;5057315;28;20036;-70
2023/06/03 09:06:30;;;;;;;1.63;0.10;;;;;;;26.59;12.27;102447.22;5046863;28;20541;-70
2023/06/03 09:09:00;;;;;;;0.22;0.10;;;;;;;26.05;13.30;102448.94;5054186;28;20040;-71
2023/06/03 09:11:26;;;;;;;1.67;0.10;;;;;;;26.80;12.31;102455.25;5060940;28;20590;-70
2023/06/03 09:13:55;;;;;;;1.13;0.10;;;;;;;26.57;13.67;102459.88;5051969;28;21037;-71
2023/06/03 09:16:20;;;;;;;0.55;0.30;;;;;;;26.37;12.82;102451.66;5050336;28;20032;-70
2023/06/03 09:18:48;;;;;;;1.17;0.10;;;;;;;25.77;13.28;102455.69;5058788;28;20036;-70
2023/06/03 09:21:15;;;;;;;0.93;0.20;;;;;;;25.54;13.01;102455.72;5061886;28;20531;-69
2023/06/03 09:23:40;;;;;;;0.98;0.17;;;;;;;25.76;13.53;102454.84;5058591;28;20541;-70
2023/06/03 09:26:06;;;;;;;2.35;0.10;;;;;;;25.93;13.11;102453.47;5051213;28;20029;-70
2023/06/03 09:28:35;;;;;;;0.20;0.10;;;;;;;25.79;13.68;102456.44;5049801;27;20768;-70
2023/06/03 09:31:02;;;;;;;2.55;0.20;;;;;;;24.81;13.69;102463.09;5050963;28;20043;-69
2023/06/03 09:33:27;;;;;;;6.90;0.20;;;;;;;24.62;15.68;102452.13;5047623;28;20044;-71
2023/06/03 09:36:15;;;;;;;0.60;0.20;;;;;;;25.20;16.31;102450.34;5056533;28;20039;-70
2023/06/03 09:38:55;;;;;;;0.40;0.30;;;;;;;24.38;15.34;102454.78;5056400;28;20048;-70
2023/06/03 09:41:22;;;;;;;0.90;0.10;;;;;;;23.46;16.46;102459.59;5102228;27;20032;-69
2023/06/03 09:43:51;;;;;;;0.57;0.10;;;;;;;23.09;15.76;102464.78;5065325;27;20056;-69
2023/06/03 09:46:17;;;;;;;0.40;0.10;;;;;;;22.94;16.43;102461.38;5053917;28;20036;-70
2023/06/03 09:48:42;;;;;;;3.42;0.20;;;;;;;22.57;16.15;102460.31;5063356;28;20385;-70
2023/06/03 09:51:08;;;;;;;2.72;0.10;;;;;;;22.05;17.35;102455.66;5074426;28;20358;-71
2023/06/03 09:53:33;;;;;;;2.38;0.10;;;;;;;21.61;18.52;102452.22;5063556;27;20043;-69
2023/06/03 09:56:19;;;;;;;1.10;0.20;;;;;;;22.26;18.72;102450.81;5054145;28;20635;-70
2023/06/03 09:58:45;;;;;;;1.55;0.15;;;;;;;22.53;17.29;102456.97;5063594;27;20077;-70
2023/06/03 10:01:11;;;;;;;4.03;0.47;;;;;;;22.33;17.69;102449.44;5073445;28;20118;-70
2023/06/03 10:03:37;;;;;;;1.33;0.10;;;;;;;21.94;17.46;102454.56;5061885;28;20592;-70
2023/06/03 10:06:18;;;;;;;1.23;0.05;;;;;;;21.84;18.06;102457.91;5051116;28;20035;-70
2023/06/03 10:08:43;;;;;;;2.40;0.30;;;;;;;21.72;18.45;102454.22;5054752;27;20086;-70
2023/06/03 10:11:09;;;;;;;1.73;0.10;;;;;;;22.11;17.84;102447.31;5085089;27;20037;-70
2023/06/03 10:13:34;;;;;;;0.32;0.10;;;;;;;22.07;17.74;102454.66;5061034;27;20071;-70
2023/06/03 10:16:02;;;;;;;1.10;0.25;;;;;;;21.72;17.09;102457.72;5072755;27;20028;-70
2023/06/03 10:18:40;;;;;;;4.10;0.10;;;;;;;21.96;16.73;102459.81;5071166;28;20036;-70
2023/06/03 10:21:10;;;;;;;1.20;0.10;;;;;;;22.02;16.46;102459.38;5072340;28;20032;-70
2023/06/03 10:23:38;;;;;;;1.02;0.10;;;;;;;21.65;17.04;102464.41;5059335;27;20103;-69
2023/06/03 10:26:05;;;;;;;2.33;0.32;;;;;;;21.80;17.27;102477.69;5053295;28;20125;-70
2023/06/03 10:28:31;;;;;;;0.43;0.10;;;;;;;21.69;16.43;102460.59;5059750;28;20040;-70
2023/06/03 10:30:59;;;;;;;0.50;0.10;;;;;;;21.55;18.01;102468.56;5072629;28;20131;-69
2023/06/03 10:33:29;;;;;;;1.17;0.20;;;;;;;21.77;16.52;102468.94;5067963;27;20046;-70
2023/06/03 10:35:56;;;;;;;1.00;0.10;;;;;;;21.94;17.17;102457.22;5054370;28;20036;-70
2023/06/03 10:38:22;;;;;;;0.63;0.10;;;;;;;21.94;16.77;102459.03;5058705;28;20412;-70
2023/06/03 10:40:49;;;;;;;0.30;0.10;;;;;;;22.21;16.89;102461.75;5055151;28;20024;-70
2023/06/03 10:43:15;;;;;;;1.02;0.10;;;;;;;22.06;16.30;102463.56;5050577;28;20072;-70
2023/06/03 10:45:42;;;;;;;3.10;0.10;;;;;;;21.58;16.70;102460.41;5052521;28;20032;-70
2023/06/03 10:48:12;;;;;;;0.68;0.10;;;;;;;21.30;16.50;102459.41;5051607;28;20135;-70
2023/06/03 10:50:53;;;;;;;0.25;0.05;;;;;;;21.69;18.34;102447.28;5054430;28;20063;-70
2023/06/03 10:53:56;;;;;;;1.65;1.15;;;;;;;21.51;17.20;102461.72;5051157;28;20063;-70
2023/06/03 10:56:38;;;;;;;1.05;0.30;;;;;;;22.11;16.92;102457.97;5083535;27;20058;-70
2023/06/03 10:59:04;;;;;;;;;;;;;;;22.20;17.11;102452.06;5051809;28;20418;-69
2023/06/03 11:02:01;;;;;;;0.30;0.10;;;;;;;21.83;17.24;102450.88;5054892;28;19951;-70
2023/06/03 11:04:32;;;;;;;0.90;0.60;;;;;;;22.39;16.94;102449.91;5049994;28;20098;-70
2023/06/03 11:06:57;;;;;;;1.10;0.20;;;;;;;22.15;17.17;102452.34;5054533;28;20047;-70
2023/06/03 11:09:32;;;;;;;0.40;0.10;;;;;;;21.82;17.33;102451.81;5051745;28;20040;-70
2023/06/03 11:12:04;;;;;;;4.97;0.30;;;;;;;21.57;17.19;102440.06;5051882;28;20427;-69
2023/06/03 11:14:29;;;;;;;3.13;0.20;;;;;;;21.58;17.55;102444.44;5059574;28;20045;-70
2023/06/03 11:16:57;;;;;;;1.58;0.10;;;;;;;21.41;17.28;102445.44;5053739;28;20035;-70
2023/06/03 11:19:46;;;;;;;0.70;0.20;;;;;;;21.40;18.14;102456.19;5048051;28;20044;-70
2023/06/03 11:22:34;;;;;;;1.85;0.30;;;;;;;21.78;17.80;102448.53;5054740;28;20075;-69
2023/06/03 11:25:00;;;;;;;1.80;0.28;;;;;;;21.72;17.45;102444.44;5068306;27;20698;-70
2023/06/03 11:27:49;;;;;;;0.30;0.20;;;;;;;21.30;18.86;102438.13;5073239;28;20117;-70
2023/06/03 11:30:15;;;;;;;3.22;0.20;;;;;;;21.51;19.13;102435.13;5045621;28;20469;-70
2023/06/03 11:32:40;;;;;;;3.05;0.40;;;;;;;21.65;18.71;102429.81;5056500;28;20059;-70
2023/06/03 11:35:06;;;;;;;1.67;0.13;;;;;;;21.22;19.10;102429.78;5071300;28;20040;-69
2023/06/03 11:37:40;;;;;;;0.85;0.20;;;;;;;21.73;17.89;102440.81;5075605;28;20333;-71